Time;durP1;ratioP1;P1;durP2;ratioP2;P2;SDS_P1;SDS_P2;PMS_P1;PMS_P2;Temp;Humidity;BMP_temperature;BMP_pressure;BME280_temperature;BME280_humidity;BME280_pressure;Samples;Min_cycle;Max_cycle;Signal;HPM_P1;HPM_P2
2023/05/22 00:01:48;;;;;;;16.88;10.63;;;;;;;;;;5037863;28;20057;-60
2023/05/22 00:04:20;;;;;;;15.35;10.55;;;;;;;;;;5020676;28;20073;-61
2023/05/22 00:06:47;;;;;;;14.18;10.25;;;;;;;;;;5025943;28;20052;-59
2023/05/22 00:09:14;;;;;;;15.80;10.15;;;;;;;;;;5041675;28;20040;-60
2023/05/22 00:11:40;;;;;;;17.40;10.82;;;;;;;;;;5033481;28;20048;-59
2023/05/22 00:14:06;;;;;;;17.00;10.63;;;;;;;;;;5035141;28;20037;-60
2023/05/22 00:16:32;;;;;;;16.73;10.38;;;;;;;;;;5034480;28;20048;-59
2023/05/22 00:18:59;;;;;;;16.90;11.23;;;;;;;;;;5035670;28;20025;-60
2023/05/22 00:21:26;;;;;;;19.20;11.40;;;;;;;;;;5030552;28;20045;-60
2023/05/22 00:23:52;;;;;;;18.15;11.68;;;;;;;;;;5026896;28;20057;-59
2023/05/22 00:26:21;;;;;;;16.77;11.52;;;;;;;;;;5033257;28;20055;-59
2023/05/22 00:28:47;;;;;;;20.60;11.93;;;;;;;;;;5035879;28;20045;-60
2023/05/22 00:31:14;;;;;;;19.02;11.55;;;;;;;;;;5025727;28;20037;-59
2023/05/22 00:33:40;;;;;;;17.02;12.05;;;;;;;;;;5015093;28;20406;-60
2023/05/22 00:36:07;;;;;;;17.75;11.40;;;;;;;;;;5042011;28;20037;-59
2023/05/22 00:38:35;;;;;;;19.15;12.27;;;;;;;;;;5023331;28;20037;-59
2023/05/22 00:41:04;;;;;;;16.70;11.85;;;;;;;;;;5020036;28;20483;-60
2023/05/22 00:43:31;;;;;;;21.40;12.35;;;;;;;;;;5007741;28;20491;-59
2023/05/22 00:45:58;;;;;;;17.38;12.40;;;;;;;;;;5008439;28;20479;-60
2023/05/22 00:48:26;;;;;;;18.08;11.55;;;;;;;;;;5035084;28;20044;-59
2023/05/22 00:50:56;;;;;;;18.90;11.77;;;;;;;;;;5017716;28;20510;-60
2023/05/22 00:53:24;;;;;;;19.05;12.20;;;;;;;;;;5028735;28;20549;-59
2023/05/22 00:55:52;;;;;;;19.48;11.85;;;;;;;;;;5039736;28;20499;-60
2023/05/22 00:58:18;;;;;;;18.77;12.32;;;;;;;;;;5034627;28;20654;-60
2023/05/22 01:00:46;;;;;;;15.35;10.90;;;;;;;;;;5040933;28;20045;-60
2023/05/22 01:03:13;;;;;;;16.48;12.02;;;;;;;;;;5013073;28;20044;-60
2023/05/22 01:05:40;;;;;;;17.90;11.77;;;;;;;;;;5032502;28;20060;-60
2023/05/22 01:08:07;;;;;;;18.20;11.73;;;;;;;;;;5000255;28;20048;-60
2023/05/22 01:10:35;;;;;;;18.77;13.02;;;;;;;;;;4991265;28;20037;-59
2023/05/22 01:13:05;;;;;;;17.88;11.70;;;;;;;;;;5036684;28;20045;-59
2023/05/22 01:16:14;;;;;;;19.25;12.25;;;;;;;;;;5023149;28;20033;-59
2023/05/22 01:19:03;;;;;;;18.95;12.23;;;;;;;;;;5038417;28;20036;-59
2023/05/22 01:22:03;;;;;;;17.95;12.60;;;;;;;;;;5020064;28;20029;-59
2023/05/22 01:24:40;;;;;;;;;;;;;;;;;;4955685;28;20049;-59
2023/05/22 01:27:24;;;;;;;19.45;12.52;;;;;;;;;;5030731;28;19908;-59
2023/05/22 01:29:53;;;;;;;18.42;12.07;;;;;;;;;;5035736;28;20390;-61
2023/05/22 01:32:21;;;;;;;19.53;12.53;;;;;;;;;;5037849;28;20052;-60
2023/05/22 01:34:52;;;;;;;20.55;11.93;;;;;;;;;;5040811;28;20028;-61
2023/05/22 01:37:22;;;;;;;20.45;11.13;;;;;;;;;;5035429;28;20128;-60
2023/05/22 01:39:52;;;;;;;20.17;12.73;;;;;;;;;;5025805;28;20032;-60
2023/05/22 01:42:19;;;;;;;20.83;12.13;;;;;;;;;;5032515;28;20037;-60
2023/05/22 01:44:47;;;;;;;18.00;11.88;;;;;;;;;;5003409;28;20025;-60
2023/05/22 01:47:15;;;;;;;18.80;12.23;;;;;;;;;;5035140;28;20064;-60
2023/05/22 01:49:42;;;;;;;20.77;12.93;;;;;;;;;;5034486;28;20048;-60
2023/05/22 01:52:34;;;;;;;19.85;12.88;;;;;;;;;;5039495;28;20323;-60
2023/05/22 01:55:08;;;;;;;18.10;11.82;;;;;;;;;;4995292;28;20550;-60
2023/05/22 01:57:42;;;;;;;22.05;13.40;;;;;;;;;;5028446;28;20026;-60
2023/05/22 02:00:14;;;;;;;20.42;12.48;;;;;;;;;;5035657;28;20033;-60
2023/05/22 02:03:04;;;;;;;19.48;12.38;;;;;;;;;;5031446;28;20052;-60
2023/05/22 02:05:34;;;;;;;19.52;13.23;;;;;;;;;;4995813;28;20048;-60
2023/05/22 02:08:02;;;;;;;18.20;12.57;;;;;;;;;;5036727;28;20037;-59
2023/05/22 02:10:29;;;;;;;20.08;12.80;;;;;;;;;;4990665;28;20044;-60
2023/05/22 02:12:56;;;;;;;21.80;13.85;;;;;;;;;;5037506;28;20522;-60
2023/05/22 02:15:22;;;;;;;23.13;13.50;;;;;;;;;;5018858;28;20549;-61
2023/05/22 02:17:51;;;;;;;20.77;12.75;;;;;;;;;;5033537;28;20032;-59
2023/05/22 02:20:18;;;;;;;23.83;13.70;;;;;;;;;;5015746;28;20387;-58
2023/05/22 02:22:46;;;;;;;23.05;12.77;;;;;;;;;;5004879;28;20075;-58
2023/05/22 02:25:13;;;;;;;20.70;12.43;;;;;;;;;;5034327;28;20049;-59
2023/05/22 02:27:45;;;;;;;23.58;12.23;;;;;;;;;;5029086;28;20498;-58
2023/05/22 02:30:13;;;;;;;21.77;12.65;;;;;;;;;;5022664;28;20037;-59
2023/05/22 02:32:41;;;;;;;18.48;12.13;;;;;;;;;;4983618;28;20033;-59
2023/05/22 02:35:08;;;;;;;19.75;12.02;;;;;;;;;;5031767;28;20053;-59
2023/05/22 02:37:35;;;;;;;18.90;12.75;;;;;;;;;;5035722;28;20418;-59
2023/05/22 02:40:04;;;;;;;18.33;11.43;;;;;;;;;;5027466;28;20040;-59
2023/05/22 02:42:31;;;;;;;18.77;12.27;;;;;;;;;;5039558;28;20033;-59
2023/05/22 02:44:59;;;;;;;19.30;12.27;;;;;;;;;;5027573;28;20045;-59
2023/05/22 02:47:25;;;;;;;18.73;11.90;;;;;;;;;;5011817;28;20052;-59
2023/05/22 02:49:52;;;;;;;19.92;12.13;;;;;;;;;;5016644;28;20033;-59
2023/05/22 02:52:18;;;;;;;20.83;12.55;;;;;;;;;;5032733;28;20057;-59
2023/05/22 02:54:44;;;;;;;17.27;11.60;;;;;;;;;;5032641;28;20036;-59
2023/05/22 02:57:10;;;;;;;20.42;12.35;;;;;;;;;;5024726;28;20033;-59
2023/05/22 02:59:37;;;;;;;18.40;12.10;;;;;;;;;;5031498;28;20395;-59
2023/05/22 03:02:04;;;;;;;19.15;12.18;;;;;;;;;;5042055;28;20055;-59
2023/05/22 03:04:31;;;;;;;17.95;11.40;;;;;;;;;;5040276;28;20024;-59
2023/05/22 03:06:57;;;;;;;19.92;12.38;;;;;;;;;;5022794;28;20040;-59
2023/05/22 03:09:24;;;;;;;19.13;11.93;;;;;;;;;;5039840;28;20038;-59
2023/05/22 03:11:50;;;;;;;19.30;12.40;;;;;;;;;;5043362;28;20029;-59
2023/05/22 03:14:17;;;;;;;19.13;11.60;;;;;;;;;;5037732;28;20059;-59
2023/05/22 03:16:44;;;;;;;19.30;12.63;;;;;;;;;;5021363;28;20040;-59
2023/05/22 03:19:12;;;;;;;20.20;12.15;;;;;;;;;;5032205;28;20036;-59
2023/05/22 03:21:39;;;;;;;20.45;12.68;;;;;;;;;;5005215;28;20040;-59
2023/05/22 03:24:06;;;;;;;20.52;13.05;;;;;;;;;;5022727;28;20135;-59
2023/05/22 03:26:33;;;;;;;20.38;11.90;;;;;;;;;;5040854;28;20058;-59
2023/05/22 03:29:01;;;;;;;20.88;11.77;;;;;;;;;;5012292;28;20041;-59
2023/05/22 03:31:32;;;;;;;19.73;12.50;;;;;;;;;;5036558;28;20032;-59
2023/05/22 03:34:07;;;;;;;19.40;12.52;;;;;;;;;;5034047;28;20049;-59
2023/05/22 03:36:35;;;;;;;19.05;12.77;;;;;;;;;;5034423;28;20515;-59
2023/05/22 03:39:02;;;;;;;22.35;12.88;;;;;;;;;;5027060;28;20029;-59
2023/05/22 03:41:31;;;;;;;;;;;;;;;;;;5020598;28;20040;-59
2023/05/22 03:43:57;;;;;;;19.88;12.00;;;;;;;;;;5024779;28;19915;-59
2023/05/22 03:46:25;;;;;;;22.02;13.02;;;;;;;;;;5023633;28;20037;-60
2023/05/22 03:48:51;;;;;;;18.90;12.63;;;;;;;;;;5029827;28;20045;-59
2023/05/22 03:51:17;;;;;;;20.10;13.07;;;;;;;;;;5036166;28;20059;-59
2023/05/22 03:53:43;;;;;;;20.83;12.75;;;;;;;;;;5037102;28;20047;-59
2023/05/22 03:56:10;;;;;;;20.25;12.75;;;;;;;;;;5019145;28;20391;-59
2023/05/22 03:58:36;;;;;;;20.60;12.52;;;;;;;;;;5033322;28;20048;-59
2023/05/22 04:01:03;;;;;;;20.90;13.07;;;;;;;;;;5019996;28;20034;-59
2023/05/22 04:03:29;;;;;;;21.15;13.48;;;;;;;;;;5036720;28;20041;-58
2023/05/22 04:05:58;;;;;;;21.08;13.32;;;;;;;;;;5024623;28;20037;-59
2023/05/22 04:08:24;;;;;;;21.75;13.85;;;;;;;;;;5042339;28;20526;-59
2023/05/22 04:10:53;;;;;;;20.10;12.68;;;;;;;;;;5019115;28;20038;-59
2023/05/22 04:13:19;;;;;;;22.60;13.10;;;;;;;;;;5024974;28;20045;-59
2023/05/22 04:15:45;;;;;;;20.17;12.60;;;;;;;;;;5020780;28;20041;-58
2023/05/22 04:18:13;;;;;;;19.65;12.20;;;;;;;;;;5015853;28;20312;-59
2023/05/22 04:20:41;;;;;;;22.95;12.43;;;;;;;;;;5013707;28;20040;-59
2023/05/22 04:23:08;;;;;;;25.75;14.60;;;;;;;;;;5042932;28;20067;-59
2023/05/22 04:25:35;;;;;;;23.25;13.35;;;;;;;;;;5018795;28;20048;-59
2023/05/22 04:28:02;;;;;;;22.65;13.88;;;;;;;;;;5032345;28;20037;-59
2023/05/22 04:30:32;;;;;;;20.83;13.60;;;;;;;;;;5026599;28;20032;-59
2023/05/22 04:32:59;;;;;;;23.20;13.90;;;;;;;;;;5029786;28;20045;-59
2023/05/22 04:35:28;;;;;;;24.10;14.38;;;;;;;;;;5018943;28;20211;-59
2023/05/22 04:37:55;;;;;;;20.33;12.88;;;;;;;;;;5026963;28;20060;-58
2023/05/22 04:40:22;;;;;;;25.60;14.73;;;;;;;;;;5025207;28;20070;-59
2023/05/22 04:42:49;;;;;;;24.92;15.23;;;;;;;;;;5041285;28;20410;-59
2023/05/22 04:45:15;;;;;;;23.67;14.13;;;;;;;;;;5032531;28;20049;-60
2023/05/22 04:47:41;;;;;;;27.50;16.42;;;;;;;;;;5034649;28;20029;-59
2023/05/22 04:50:08;;;;;;;25.67;15.05;;;;;;;;;;5038434;28;20044;-59
2023/05/22 04:52:34;;;;;;;22.65;14.50;;;;;;;;;;5037430;28;20049;-59
2023/05/22 04:55:01;;;;;;;25.17;14.80;;;;;;;;;;5040767;28;20037;-59
2023/05/22 04:57:28;;;;;;;20.60;13.07;;;;;;;;;;5024905;28;20041;-59
2023/05/22 04:59:56;;;;;;;21.50;13.93;;;;;;;;;;5021189;28;20029;-59
2023/05/22 05:02:22;;;;;;;22.08;13.70;;;;;;;;;;5040176;28;20097;-59
2023/05/22 05:04:48;;;;;;;22.63;14.45;;;;;;;;;;5033133;28;20032;-59
2023/05/22 05:07:17;;;;;;;20.58;13.65;;;;;;;;;;5008912;28;20498;-59
2023/05/22 05:09:43;;;;;;;23.40;14.18;;;;;;;;;;5008199;28;20041;-59
2023/05/22 05:12:10;;;;;;;22.08;13.18;;;;;;;;;;5014354;28;20043;-59
2023/05/22 05:14:36;;;;;;;32.10;18.08;;;;;;;;;;5017245;28;20029;-60
2023/05/22 05:17:03;;;;;;;23.27;13.82;;;;;;;;;;5037744;28;20200;-58
2023/05/22 05:19:29;;;;;;;23.25;14.95;;;;;;;;;;5029099;28;20044;-58
2023/05/22 05:21:55;;;;;;;21.63;14.23;;;;;;;;;;5041757;28;20048;-58
2023/05/22 05:24:22;;;;;;;25.75;14.80;;;;;;;;;;5012661;28;20045;-59
2023/05/22 05:26:49;;;;;;;26.00;15.60;;;;;;;;;;5040759;28;20076;-59
2023/05/22 05:29:16;;;;;;;21.40;14.82;;;;;;;;;;5034027;28;20040;-59
2023/05/22 05:31:57;;;;;;;21.13;14.43;;;;;;;;;;5007139;28;20037;-59
2023/05/22 05:34:50;;;;;;;23.65;14.95;;;;;;;;;;5026605;28;20048;-59
2023/05/22 05:37:22;;;;;;;25.95;14.30;;;;;;;;;;5024287;28;20044;-59
2023/05/22 05:39:49;;;;;;;24.50;15.82;;;;;;;;;;5008984;28;20033;-59
2023/05/22 05:42:16;;;;;;;23.73;14.48;;;;;;;;;;5020684;28;20041;-58
2023/05/22 05:44:44;;;;;;;22.65;14.82;;;;;;;;;;5004637;28;20039;-59
2023/05/22 05:47:12;;;;;;;22.33;14.38;;;;;;;;;;5021178;28;20041;-58
2023/05/22 05:49:40;;;;;;;21.60;14.63;;;;;;;;;;5033271;28;20403;-59
2023/05/22 05:52:06;;;;;;;23.77;14.98;;;;;;;;;;5016175;28;20044;-59
2023/05/22 05:54:35;;;;;;;24.38;14.20;;;;;;;;;;5023386;28;20042;-58
2023/05/22 05:57:05;;;;;;;20.23;14.05;;;;;;;;;;5040986;28;20482;-59
2023/05/22 05:59:32;;;;;;;22.35;14.68;;;;;;;;;;5013002;28;20041;-58
2023/05/22 06:02:16;;;;;;;22.60;14.25;;;;;;;;;;5035992;28;20056;-59
2023/05/22 06:04:47;;;;;;;21.27;13.70;;;;;;;;;;4987401;28;20044;-58
2023/05/22 06:07:14;;;;;;;;;;;;;;;;;;5033557;28;20048;-59
2023/05/22 06:09:44;;;;;;;22.10;13.77;;;;;;;;;;5021042;28;20134;-59
2023/05/22 06:12:26;;;;;;;22.33;14.65;;;;;;;;;;5035467;28;20049;-59
2023/05/22 06:14:52;;;;;;;20.65;13.68;;;;;;;;;;5032691;28;20392;-59
2023/05/22 06:17:19;;;;;;;21.73;13.90;;;;;;;;;;5020044;28;20033;-59
2023/05/22 06:19:47;;;;;;;21.65;14.10;;;;;;;;;;5023223;28;20021;-59
2023/05/22 06:22:14;;;;;;;20.27;14.10;;;;;;;;;;5031049;28;20044;-59
2023/05/22 06:24:43;;;;;;;27.80;14.97;;;;;;;;;;5018277;28;20053;-59
2023/05/22 06:27:14;;;;;;;24.63;15.32;;;;;;;;;;5031289;28;20038;-60
2023/05/22 06:29:40;;;;;;;25.13;14.82;;;;;;;;;;5020776;28;20041;-59
2023/05/22 06:32:07;;;;;;;23.95;15.20;;;;;;;;;;5021226;28;20040;-59
2023/05/22 06:34:35;;;;;;;23.35;15.57;;;;;;;;;;5026182;28;20045;-60
2023/05/22 06:37:02;;;;;;;27.27;15.95;;;;;;;;;;5040970;28;20519;-59
2023/05/22 06:39:33;;;;;;;25.38;16.17;;;;;;;;;;5028270;28;20032;-59
2023/05/22 06:42:12;;;;;;;27.23;16.60;;;;;;;;;;5037932;28;20041;-60
2023/05/22 06:44:57;;;;;;;28.98;17.13;;;;;;;;;;5021101;28;20045;-59
2023/05/22 06:47:30;;;;;;;29.38;17.55;;;;;;;;;;5041619;28;20046;-59
2023/05/22 06:49:56;;;;;;;30.02;18.17;;;;;;;;;;5034441;28;20046;-60
2023/05/22 06:52:22;;;;;;;28.73;17.48;;;;;;;;;;5029090;28;20053;-59
2023/05/22 06:54:49;;;;;;;28.25;17.38;;;;;;;;;;5042004;28;20041;-59
2023/05/22 06:57:15;;;;;;;25.65;16.73;;;;;;;;;;5046866;28;20041;-59
2023/05/22 06:59:41;;;;;;;26.80;16.67;;;;;;;;;;5022965;28;20036;-59
2023/05/22 07:02:36;;;;;;;25.05;16.77;;;;;;;;;;5040944;28;20167;-58
2023/05/22 07:05:18;;;;;;;24.50;17.05;;;;;;;;;;5036822;28;20041;-59
2023/05/22 07:07:54;;;;;;;32.85;17.48;;;;;;;;;;5040577;28;20044;-59
2023/05/22 07:10:20;;;;;;;30.10;17.75;;;;;;;;;;5027146;28;20032;-59
2023/05/22 07:12:46;;;;;;;26.83;17.30;;;;;;;;;;5006260;28;20029;-59
2023/05/22 07:15:13;;;;;;;24.25;15.77;;;;;;;;;;5047666;28;20041;-59
2023/05/22 07:17:45;;;;;;;24.65;16.05;;;;;;;;;;5043595;28;20040;-59
2023/05/22 07:20:14;;;;;;;24.10;17.15;;;;;;;;;;5046411;28;20040;-59
2023/05/22 07:22:43;;;;;;;26.88;16.60;;;;;;;;;;5028239;28;20052;-59
2023/05/22 07:25:09;;;;;;;25.70;15.63;;;;;;;;;;5046896;28;20443;-59
2023/05/22 07:27:36;;;;;;;24.30;15.75;;;;;;;;;;5015891;28;20053;-59
2023/05/22 07:30:02;;;;;;;23.92;15.65;;;;;;;;;;5045808;28;20380;-59
2023/05/22 07:32:30;;;;;;;23.38;15.40;;;;;;;;;;5045421;28;20052;-59
2023/05/22 07:34:59;;;;;;;21.90;15.15;;;;;;;;;;5044498;28;20045;-59
2023/05/22 07:37:26;;;;;;;24.27;14.98;;;;;;;;;;5040604;28;20041;-59
2023/05/22 07:39:52;;;;;;;20.13;14.70;;;;;;;;;;5020683;28;20025;-59
2023/05/22 07:42:20;;;;;;;20.40;14.20;;;;;;;;;;5025128;28;20033;-60
2023/05/22 07:44:51;;;;;;;21.98;13.45;;;;;;;;;;5037866;28;20040;-59
2023/05/22 07:47:18;;;;;;;19.25;13.38;;;;;;;;;;5022211;28;20422;-60
2023/05/22 07:49:45;;;;;;;20.65;14.52;;;;;;;;;;5021140;28;20044;-60
2023/05/22 07:52:11;;;;;;;23.52;14.38;;;;;;;;;;5016334;28;20578;-59
2023/05/22 07:54:38;;;;;;;19.70;14.48;;;;;;;;;;5029825;28;20056;-59
2023/05/22 07:57:06;;;;;;;23.02;15.30;;;;;;;;;;5022101;28;20029;-60
2023/05/22 07:59:36;;;;;;;20.20;15.18;;;;;;;;;;5024785;28;20518;-60
2023/05/22 08:02:03;;;;;;;20.10;14.75;;;;;;;;;;5014585;28;20033;-60
2023/05/22 08:04:30;;;;;;;21.42;14.20;;;;;;;;;;5037072;28;20064;-60
2023/05/22 08:06:56;;;;;;;23.40;14.50;;;;;;;;;;5036714;28;20052;-60
2023/05/22 08:09:22;;;;;;;19.83;13.88;;;;;;;;;;5036029;28;20052;-59
2023/05/22 08:11:48;;;;;;;20.33;13.57;;;;;;;;;;5039714;28;20033;-60
2023/05/22 08:14:14;;;;;;;21.45;14.38;;;;;;;;;;5037831;28;20049;-60
2023/05/22 08:16:41;;;;;;;21.50;14.75;;;;;;;;;;5034411;28;20056;-59
2023/05/22 08:19:07;;;;;;;18.73;14.38;;;;;;;;;;5040057;28;20482;-60
2023/05/22 08:21:34;;;;;;;21.25;14.15;;;;;;;;;;5025085;28;20045;-59
2023/05/22 08:24:00;;;;;;;20.27;13.88;;;;;;;;;;5038658;28;20394;-60
2023/05/22 08:26:27;;;;;;;21.63;14.77;;;;;;;;;;5030495;28;20029;-60
2023/05/22 08:28:53;;;;;;;19.60;14.95;;;;;;;;;;5011286;28;20037;-60
2023/05/22 08:31:20;;;;;;;24.88;13.98;;;;;;;;;;5029901;28;20045;-60
2023/05/22 08:33:46;;;;;;;20.27;14.07;;;;;;;;;;5035691;28;20032;-60
2023/05/22 08:36:12;;;;;;;21.48;14.25;;;;;;;;;;5035110;28;20041;-60
2023/05/22 08:38:38;;;;;;;18.17;13.93;;;;;;;;;;5025286;28;20038;-59
2023/05/22 08:41:06;;;;;;;21.48;14.98;;;;;;;;;;5038907;28;20041;-59
2023/05/22 08:43:33;;;;;;;21.10;15.13;;;;;;;;;;5040893;28;20037;-59
2023/05/22 08:46:02;;;;;;;22.10;15.05;;;;;;;;;;5042717;28;20376;-59
2023/05/22 08:48:33;;;;;;;22.85;15.82;;;;;;;;;;5021546;28;20044;-60
2023/05/22 08:51:04;;;;;;;21.95;14.98;;;;;;;;;;5007099;28;20044;-60
2023/05/22 08:53:36;;;;;;;24.33;16.70;;;;;;;;;;5020249;28;20041;-59
2023/05/22 08:56:05;;;;;;;21.05;15.00;;;;;;;;;;5034959;28;20049;-59
2023/05/22 08:58:34;;;;;;;21.73;15.93;;;;;;;;;;5033478;28;20029;-59
2023/05/22 09:01:01;;;;;;;22.95;15.18;;;;;;;;;;5039121;28;20045;-60
2023/05/22 09:03:33;;;;;;;21.55;15.32;;;;;;;;;;5022786;28;20048;-59
2023/05/22 09:06:00;;;;;;;23.33;15.80;;;;;;;;;;5035245;28;20032;-60
2023/05/22 09:08:27;;;;;;;23.25;16.48;;;;;;;;;;5037193;28;20037;-60
2023/05/22 09:10:55;;;;;;;20.35;14.82;;;;;;;;;;5023657;28;20037;-59
2023/05/22 09:13:29;;;;;;;24.17;15.93;;;;;;;;;;5020326;28;20044;-61
2023/05/22 09:16:09;;;;;;;21.23;14.90;;;;;;;;;;5017985;28;20034;-58
2023/05/22 09:18:36;;;;;;;22.40;15.15;;;;;;;;;;5030638;28;20041;-59
2023/05/22 09:21:03;;;;;;;22.55;15.27;;;;;;;;;;5019286;28;20424;-59
2023/05/22 09:23:30;;;;;;;20.80;15.02;;;;;;;;;;5012042;28;20040;-60
2023/05/22 09:26:00;;;;;;;20.05;14.27;;;;;;;;;;5022928;28;20045;-60
2023/05/22 09:28:32;;;;;;;20.05;15.10;;;;;;;;;;5036525;28;20049;-60
2023/05/22 09:30:59;;;;;;;21.55;14.80;;;;;;;;;;5039814;28;20509;-60
2023/05/22 09:33:26;;;;;;;22.92;14.65;;;;;;;;;;5034077;28;20029;-60
2023/05/22 09:35:53;;;;;;;21.65;14.63;;;;;;;;;;5037034;28;20041;-59
2023/05/22 09:38:26;;;;;;;20.70;15.43;;;;;;;;;;5044846;28;20029;-59
2023/05/22 09:40:54;;;;;;;19.92;14.80;;;;;;;;;;5033801;28;20033;-60
2023/05/22 09:43:22;;;;;;;16.80;13.95;;;;;;;;;;5028281;28;20483;-60
2023/05/22 09:45:48;;;;;;;18.00;14.02;;;;;;;;;;5028196;28;20033;-58
2023/05/22 09:48:16;;;;;;;18.40;14.40;;;;;;;;;;5038123;28;20479;-59
2023/05/22 09:50:47;;;;;;;18.98;14.07;;;;;;;;;;5036311;28;20048;-58
2023/05/22 09:53:15;;;;;;;18.92;13.82;;;;;;;;;;5019350;28;20034;-60
2023/05/22 09:55:43;;;;;;;24.02;17.33;;;;;;;;;;5018494;28;20036;-60
2023/05/22 09:58:12;;;;;;;20.55;13.88;;;;;;;;;;5018126;28;20042;-60
2023/05/22 10:00:39;;;;;;;;;;;;;;;;;;5010600;28;20478;-60
2023/05/22 10:03:14;;;;;;;20.42;14.57;;;;;;;;;;5031276;28;19909;-60
2023/05/22 10:05:47;;;;;;;17.73;13.60;;;;;;;;;;5030777;28;20045;-59
2023/05/22 10:08:19;;;;;;;19.67;14.40;;;;;;;;;;5040050;28;20041;-60
2023/05/22 10:10:51;;;;;;;19.00;13.95;;;;;;;;;;4999439;28;20041;-60
2023/05/22 10:13:17;;;;;;;21.83;15.88;;;;;;;;;;5033828;28;20053;-58
2023/05/22 10:15:45;;;;;;;18.83;14.95;;;;;;;;;;5033251;28;20037;-60
2023/05/22 10:18:14;;;;;;;17.92;14.75;;;;;;;;;;5033675;28;20049;-59
2023/05/22 10:20:41;;;;;;;22.08;13.90;;;;;;;;;;5011564;28;20029;-61
2023/05/22 10:23:08;;;;;;;18.13;14.95;;;;;;;;;;5027628;28;20037;-59
2023/05/22 10:25:37;;;;;;;18.40;14.27;;;;;;;;;;5026319;28;20044;-59
2023/05/22 10:28:04;;;;;;;16.23;13.45;;;;;;;;;;5029084;28;20032;-62
2023/05/22 10:30:39;;;;;;;17.88;14.00;;;;;;;;;;5034742;28;20037;-60
2023/05/22 10:33:39;;;;;;;19.67;13.60;;;;;;;;;;5036506;28;20033;-60
2023/05/22 10:36:38;;;;;;;18.85;14.50;;;;;;;;;;5007310;28;20046;-61
2023/05/22 10:39:42;;;;;;;17.38;13.13;;;;;;;;;;5028959;28;20040;-61
2023/05/22 10:42:14;;;;;;;17.08;13.10;;;;;;;;;;5022650;28;20046;-62
2023/05/22 10:44:42;;;;;;;17.65;14.20;;;;;;;;;;5027727;28;20048;-60
2023/05/22 10:47:10;;;;;;;17.88;13.27;;;;;;;;;;5020328;28;20525;-60
2023/05/22 10:49:37;;;;;;;17.85;14.20;;;;;;;;;;5027430;28;20033;-60
2023/05/22 10:52:04;;;;;;;17.33;13.77;;;;;;;;;;5030355;28;20060;-60
2023/05/22 10:54:44;;;;;;;17.92;13.85;;;;;;;;;;5032429;28;20053;-60
2023/05/22 10:57:16;;;;;;;18.80;13.55;;;;;;;;;;5031004;28;20054;-60
2023/05/22 10:59:42;;;;;;;13.98;12.20;;;;;;;;;;5034277;28;20032;-60
2023/05/22 11:02:29;;;;;;;17.30;13.52;;;;;;;;;;5036964;28;20049;-60
2023/05/22 11:05:18;;;;;;;18.42;13.52;;;;;;;;;;5034669;28;20021;-60
2023/05/22 11:07:44;;;;;;;21.73;14.15;;;;;;;;;;5031824;28;20040;-60
2023/05/22 11:10:10;;;;;;;15.82;13.32;;;;;;;;;;5037611;28;20037;-59
2023/05/22 11:12:36;;;;;;;18.05;13.82;;;;;;;;;;5027737;28;20053;-60
2023/05/22 11:15:09;;;;;;;17.65;13.63;;;;;;;;;;5027453;28;20040;-60
2023/05/22 11:17:38;;;;;;;15.57;12.50;;;;;;;;;;5028652;28;20068;-60
2023/05/22 11:20:06;;;;;;;15.55;12.88;;;;;;;;;;5031630;28;20048;-60
2023/05/22 11:22:41;;;;;;;18.17;12.18;;;;;;;;;;5037815;28;20048;-60
2023/05/22 11:25:15;;;;;;;18.80;12.68;;;;;;;;;;5040724;28;20036;-60
2023/05/22 11:27:42;;;;;;;16.55;12.73;;;;;;;;;;5037420;28;20036;-59
2023/05/22 11:30:09;;;;;;;20.08;12.38;;;;;;;;;;5036160;28;20036;-61
2023/05/22 11:32:37;;;;;;;19.15;14.30;;;;;;;;;;5033299;28;20037;-59
2023/05/22 11:35:09;;;;;;;17.58;13.45;;;;;;;;;;5047892;28;20037;-60
2023/05/22 11:37:39;;;;;;;17.30;13.15;;;;;;;;;;5038558;28;20025;-60
2023/05/22 11:40:06;;;;;;;17.50;12.93;;;;;;;;;;5033507;28;20029;-60
2023/05/22 11:42:34;;;;;;;18.83;12.40;;;;;;;;;;5035699;28;20471;-60
2023/05/22 11:45:01;;;;;;;17.02;12.55;;;;;;;;;;5029818;28;20029;-61
2023/05/22 11:47:28;;;;;;;14.30;11.63;;;;;;;;;;5035707;28;20060;-60
2023/05/22 11:49:55;;;;;;;17.10;11.55;;;;;;;;;;5013705;28;20056;-60
2023/05/22 11:52:22;;;;;;;15.53;11.73;;;;;;;;;;5003380;28;20025;-60
2023/05/22 11:54:50;;;;;;;14.05;12.50;;;;;;;;;;5003174;28;20032;-60
2023/05/22 11:57:17;;;;;;;13.35;11.85;;;;;;;;;;5029156;28;20037;-60
2023/05/22 11:59:47;;;;;;;14.38;11.98;;;;;;;;;;5025263;28;20036;-60
2023/05/22 12:02:15;;;;;;;15.93;11.82;;;;;;;;;;5017477;28;20060;-61
2023/05/22 12:04:41;;;;;;;17.92;12.40;;;;;;;;;;5022099;28;20060;-60
2023/05/22 12:07:08;;;;;;;14.07;11.88;;;;;;;;;;5033340;28;20064;-61
2023/05/22 12:09:37;;;;;;;15.55;12.80;;;;;;;;;;5042825;28;20556;-60
2023/05/22 12:12:03;;;;;;;15.60;12.23;;;;;;;;;;5031599;28;20056;-60
2023/05/22 12:14:30;;;;;;;15.90;12.80;;;;;;;;;;5033540;28;20041;-60
2023/05/22 12:17:03;;;;;;;15.38;12.52;;;;;;;;;;5034166;28;20048;-61
2023/05/22 12:19:29;;;;;;;15.43;12.18;;;;;;;;;;5035202;28;20032;-60
2023/05/22 12:21:56;;;;;;;17.98;11.85;;;;;;;;;;5043567;28;20047;-60
2023/05/22 12:24:22;;;;;;;15.45;12.07;;;;;;;;;;5046785;28;20033;-60
2023/05/22 12:26:53;;;;;;;14.47;11.10;;;;;;;;;;5048129;28;20101;-60
2023/05/22 12:29:22;;;;;;;13.68;11.55;;;;;;;;;;5042642;28;20057;-60
2023/05/22 12:31:49;;;;;;;17.75;11.80;;;;;;;;;;5014524;28;20033;-60
2023/05/22 12:34:17;;;;;;;17.63;11.55;;;;;;;;;;5045508;28;20035;-61
2023/05/22 12:36:45;;;;;;;13.65;11.52;;;;;;;;;;5033942;28;20060;-60
2023/05/22 12:39:15;;;;;;;14.80;11.32;;;;;;;;;;5029571;28;20045;-60
2023/05/22 12:41:43;;;;;;;14.20;11.50;;;;;;;;;;5040675;28;20030;-62
2023/05/22 12:44:09;;;;;;;15.47;10.90;;;;;;;;;;5040062;28;20045;-61
2023/05/22 12:46:37;;;;;;;16.83;10.85;;;;;;;;;;5028114;28;20406;-59
2023/05/22 12:49:03;;;;;;;15.47;11.90;;;;;;;;;;5023068;28;20024;-59
2023/05/22 12:51:30;;;;;;;14.40;11.25;;;;;;;;;;5020291;28;20038;-59
2023/05/22 12:53:58;;;;;;;14.57;11.40;;;;;;;;;;5033053;28;20048;-59
2023/05/22 12:56:24;;;;;;;13.95;12.05;;;;;;;;;;5034359;28;20029;-59
2023/05/22 12:58:51;;;;;;;16.80;12.93;;;;;;;;;;5031139;28;20049;-59
2023/05/22 13:01:17;;;;;;;17.15;12.85;;;;;;;;;;4980666;28;20479;-60
2023/05/22 13:03:45;;;;;;;15.25;12.07;;;;;;;;;;5037455;28;20049;-59
2023/05/22 13:06:11;;;;;;;16.40;12.45;;;;;;;;;;5027086;28;20113;-60
2023/05/22 13:08:37;;;;;;;16.50;12.05;;;;;;;;;;5033535;28;20069;-58
2023/05/22 13:11:04;;;;;;;15.52;12.02;;;;;;;;;;5031774;28;20044;-59
2023/05/22 13:13:30;;;;;;;18.08;12.35;;;;;;;;;;5034015;28;20041;-59
2023/05/22 13:15:56;;;;;;;16.33;11.15;;;;;;;;;;5031786;28;20037;-59
2023/05/22 13:18:22;;;;;;;15.05;12.07;;;;;;;;;;5041443;28;20431;-59
2023/05/22 13:20:48;;;;;;;15.65;11.88;;;;;;;;;;5019535;28;20021;-60
2023/05/22 13:23:15;;;;;;;14.88;11.20;;;;;;;;;;5040472;28;20040;-61
2023/05/22 13:25:41;;;;;;;14.57;11.63;;;;;;;;;;5033547;28;20387;-60
2023/05/22 13:28:07;;;;;;;13.75;10.70;;;;;;;;;;5004835;28;20041;-61
2023/05/22 13:30:33;;;;;;;11.43;10.18;;;;;;;;;;5036786;28;20045;-62
2023/05/22 13:33:00;;;;;;;14.38;10.23;;;;;;;;;;5040114;28;20048;-64
2023/05/22 13:35:26;;;;;;;12.43;10.20;;;;;;;;;;5035575;28;20067;-63
2023/05/22 13:37:52;;;;;;;14.05;10.60;;;;;;;;;;5039538;28;20410;-62
2023/05/22 13:40:18;;;;;;;14.13;9.70;;;;;;;;;;5041618;28;20033;-63
2023/05/22 13:42:44;;;;;;;11.18;9.57;;;;;;;;;;5045159;28;20041;-64
2023/05/22 13:45:11;;;;;;;31.45;10.07;;;;;;;;;;5020839;28;20057;-59
2023/05/22 13:47:37;;;;;;;14.25;9.85;;;;;;;;;;5036176;28;20418;-62
2023/05/22 13:50:04;;;;;;;13.32;9.82;;;;;;;;;;5032993;28;20053;-63
2023/05/22 13:52:30;;;;;;;13.43;10.00;;;;;;;;;;5032512;28;20039;-62
2023/05/22 13:54:56;;;;;;;12.10;9.35;;;;;;;;;;5023620;28;20021;-64
2023/05/22 13:57:22;;;;;;;14.63;9.75;;;;;;;;;;5016389;28;20037;-64
2023/05/22 13:59:49;;;;;;;13.82;10.38;;;;;;;;;;5014694;28;20040;-62
2023/05/22 14:02:18;;;;;;;17.10;10.07;;;;;;;;;;5030852;28;20056;-62
2023/05/22 14:04:44;;;;;;;14.88;10.57;;;;;;;;;;5022824;28;20052;-62
2023/05/22 14:07:11;;;;;;;16.45;11.63;;;;;;;;;;5008112;28;20029;-62
2023/05/22 14:09:37;;;;;;;12.95;9.82;;;;;;;;;;5013987;28;20061;-62
2023/05/22 14:12:03;;;;;;;14.07;9.90;;;;;;;;;;5036687;28;20052;-65
2023/05/22 14:14:30;;;;;;;13.57;10.52;;;;;;;;;;5027500;28;20049;-62
2023/05/22 14:16:56;;;;;;;16.60;11.57;;;;;;;;;;5029717;28;20045;-62
2023/05/22 14:19:23;;;;;;;18.35;12.07;;;;;;;;;;5025784;28;20053;-61
2023/05/22 14:21:50;;;;;;;17.98;10.57;;;;;;;;;;5021141;28;20029;-61
2023/05/22 14:24:17;;;;;;;15.57;11.30;;;;;;;;;;5039924;28;20041;-62
2023/05/22 14:26:44;;;;;;;17.95;10.45;;;;;;;;;;5022853;28;20044;-62
2023/05/22 14:29:10;;;;;;;17.17;10.20;;;;;;;;;;5034378;28;20060;-61